sensor_id;sensor_type;location;lat;lon;timestamp;pressure;altitude;pressure_sealevel;temperature
61977;BMP280;45905;50.570;10.428;2023-02-23T00:02:06;97501.38;;;8.40
61977;BMP280;45905;50.570;10.428;2023-02-23T00:04:34;97504.69;;;8.41
61977;BMP280;45905;50.570;10.428;2023-02-23T00:07:02;97507.53;;;8.38
61977;BMP280;45905;50.570;10.428;2023-02-23T00:09:29;97510.06;;;8.38
61977;BMP280;45905;50.570;10.428;2023-02-23T00:12:05;97507.69;;;8.37
61977;BMP280;45905;50.570;10.428;2023-02-23T00:14:36;97506.88;;;8.36
61977;BMP280;45905;50.570;10.428;2023-02-23T00:17:05;97507.69;;;8.37
61977;BMP280;45905;50.570;10.428;2023-02-23T00:19:40;97505.28;;;8.35
61977;BMP280;45905;50.570;10.428;2023-02-23T00:22:10;97512.38;;;8.32
61977;BMP280;45905;50.570;10.428;2023-02-23T00:24:38;97505.91;;;8.29
61977;BMP280;45905;50.570;10.428;2023-02-23T00:27:08;97511.09;;;8.28
61977;BMP280;45905;50.570;10.428;2023-02-23T00:29:35;97506.84;;;8.28
61977;BMP280;45905;50.570;10.428;2023-02-23T00:32:06;97508.72;;;8.26
61977;BMP280;45905;50.570;10.428;2023-02-23T00:34:34;97513.78;;;8.26
61977;BMP280;45905;50.570;10.428;2023-02-23T00:37:03;97511.41;;;8.25
61977;BMP280;45905;50.570;10.428;2023-02-23T00:39:30;97508.22;;;8.23
61977;BMP280;45905;50.570;10.428;2023-02-23T00:41:58;97504.94;;;8.22
61977;BMP280;45905;50.570;10.428;2023-02-23T00:44:30;97506.81;;;8.20
61977;BMP280;45905;50.570;10.428;2023-02-23T00:47:02;97502.84;;;8.18
61977;BMP280;45905;50.570;10.428;2023-02-23T00:49:29;97519.06;;;8.16
61977;BMP280;45905;50.570;10.428;2023-02-23T00:51:56;97513.97;;;8.08
61977;BMP280;45905;50.570;10.428;2023-02-23T00:54:24;97517.91;;;8.02
61977;BMP280;45905;50.570;10.428;2023-02-23T00:56:51;97513.50;;;8.04
61977;BMP280;45905;50.570;10.428;2023-02-23T00:59:19;97510.97;;;8.04
61977;BMP280;45905;50.570;10.428;2023-02-23T01:01:47;97502.63;;;8.04
61977;BMP280;45905;50.570;10.428;2023-02-23T01:04:14;97517.75;;;8.04
61977;BMP280;45905;50.570;10.428;2023-02-23T01:06:42;97518.97;;;8.00
61977;BMP280;45905;50.570;10.428;2023-02-23T01:09:15;97511.66;;;7.97
61977;BMP280;45905;50.570;10.428;2023-02-23T01:11:54;97507.88;;;7.93
61977;BMP280;45905;50.570;10.428;2023-02-23T01:14:23;97510.72;;;7.98
61977;BMP280;45905;50.570;10.428;2023-02-23T01:16:50;97503.97;;;7.99
61977;BMP280;45905;50.570;10.428;2023-02-23T01:19:17;97507.81;;;8.02
61977;BMP280;45905;50.570;10.428;2023-02-23T01:21:44;97505.16;;;8.04
61977;BMP280;45905;50.570;10.428;2023-02-23T01:24:12;97507.34;;;8.07
61977;BMP280;45905;50.570;10.428;2023-02-23T01:26:43;97501.38;;;8.08
61977;BMP280;45905;50.570;10.428;2023-02-23T01:29:16;97496.19;;;8.09
61977;BMP280;45905;50.570;10.428;2023-02-23T01:31:47;97497.75;;;8.10
61977;BMP280;45905;50.570;10.428;2023-02-23T01:34:19;97493.81;;;8.08
61977;BMP280;45905;50.570;10.428;2023-02-23T01:36:47;97504.41;;;8.11
61977;BMP280;45905;50.570;10.428;2023-02-23T01:39:18;97494.44;;;8.10
61977;BMP280;45905;50.570;10.428;2023-02-23T01:41:46;97497.75;;;8.10
61977;BMP280;45905;50.570;10.428;2023-02-23T01:46:44;97499.50;;;8.10
61977;BMP280;45905;50.570;10.428;2023-02-23T01:49:26;97500.56;;;8.07
61977;BMP280;45905;50.570;10.428;2023-02-23T01:52:11;97500.72;;;8.06
61977;BMP280;45905;50.570;10.428;2023-02-23T01:54:47;97502.63;;;8.04
61977;BMP280;45905;50.570;10.428;2023-02-23T01:57:21;97497.06;;;8.00
61977;BMP280;45905;50.570;10.428;2023-02-23T01:59:52;97497.22;;;7.99
61977;BMP280;45905;50.570;10.428;2023-02-23T02:02:27;97494.81;;;7.98
61977;BMP280;45905;50.570;10.428;2023-02-23T02:05:01;97510.13;;;7.96
61977;BMP280;45905;50.570;10.428;2023-02-23T02:07:31;97508.16;;;7.90
61977;BMP280;45905;50.570;10.428;2023-02-23T02:10:01;97509.41;;;7.86
61977;BMP280;45905;50.570;10.428;2023-02-23T02:12:47;97503.72;;;7.84
61977;BMP280;45905;50.570;10.428;2023-02-23T02:15:19;97504.31;;;7.79
61977;BMP280;45905;50.570;10.428;2023-02-23T02:39:31;97496.22;;;7.50
61977;BMP280;45905;50.570;10.428;2023-02-23T02:42:29;97495.72;;;7.47
61977;BMP280;45905;50.570;10.428;2023-02-23T02:47:45;97495.22;;;7.43
61977;BMP280;45905;50.570;10.428;2023-02-23T02:53:25;97486.50;;;7.38
61977;BMP280;45905;50.570;10.428;2023-02-23T02:55:56;97490.09;;;7.36
61977;BMP280;45905;50.570;10.428;2023-02-23T02:58:26;97500.50;;;7.33
61977;BMP280;45905;50.570;10.428;2023-02-23T03:00:53;97488.19;;;7.30
61977;BMP280;45905;50.570;10.428;2023-02-23T03:03:43;97484.22;;;7.27
61977;BMP280;45905;50.570;10.428;2023-02-23T03:07:05;97484.53;;;7.24
61977;BMP280;45905;50.570;10.428;2023-02-23T03:10:03;97489.19;;;7.20
61977;BMP280;45905;50.570;10.428;2023-02-23T03:13:09;97482.72;;;7.17
61977;BMP280;45905;50.570;10.428;2023-02-23T03:16:26;97489.78;;;7.14
61977;BMP280;45905;50.570;10.428;2023-02-23T03:19:33;97478.56;;;7.08
61977;BMP280;45905;50.570;10.428;2023-02-23T03:22:37;97482.06;;;6.98
61977;BMP280;45905;50.570;10.428;2023-02-23T03:26:11;97500.59;;;6.80
61977;BMP280;45905;50.570;10.428;2023-02-23T03:32:32;97497.78;;;6.83
61977;BMP280;45905;50.570;10.428;2023-02-23T03:41:54;97504.66;;;6.90
61977;BMP280;45905;50.570;10.428;2023-02-23T03:44:45;97506.25;;;6.91
61977;BMP280;45905;50.570;10.428;2023-02-23T03:47:38;97508.91;;;6.90
61977;BMP280;45905;50.570;10.428;2023-02-23T03:50:38;97507.81;;;6.92
61977;BMP280;45905;50.570;10.428;2023-02-23T03:53:40;97502.13;;;6.90
61977;BMP280;45905;50.570;10.428;2023-02-23T03:56:31;97502.28;;;6.89
61977;BMP280;45905;50.570;10.428;2023-02-23T03:59:23;97498.97;;;6.88
61977;BMP280;45905;50.570;10.428;2023-02-23T04:02:13;97498.19;;;6.88
61977;BMP280;45905;50.570;10.428;2023-02-23T04:05:08;97489.03;;;6.87
61977;BMP280;45905;50.570;10.428;2023-02-23T04:07:57;97499.91;;;6.87
61977;BMP280;45905;50.570;10.428;2023-02-23T04:10:53;97489.81;;;6.87
61977;BMP280;45905;50.570;10.428;2023-02-23T04:13:47;97495.00;;;6.86
61977;BMP280;45905;50.570;10.428;2023-02-23T04:16:16;97488.25;;;6.86
61977;BMP280;45905;50.570;10.428;2023-02-23T04:18:43;97489.63;;;6.81
61977;BMP280;45905;50.570;10.428;2023-02-23T04:21:11;97503.63;;;6.84
61977;BMP280;45905;50.570;10.428;2023-02-23T04:23:40;97499.38;;;6.84
61977;BMP280;45905;50.570;10.428;2023-02-23T04:26:07;97503.47;;;6.85
61977;BMP280;45905;50.570;10.428;2023-02-23T04:28:34;97495.94;;;6.85
61977;BMP280;45905;50.570;10.428;2023-02-23T04:31:01;97502.69;;;6.85
61977;BMP280;45905;50.570;10.428;2023-02-23T04:33:29;97501.09;;;6.84
61977;BMP280;45905;50.570;10.428;2023-02-23T04:35:56;97507.22;;;6.81
61977;BMP280;45905;50.570;10.428;2023-02-23T04:38:23;97511.47;;;6.81
61977;BMP280;45905;50.570;10.428;2023-02-23T04:40:50;97500.75;;;6.79
61977;BMP280;45905;50.570;10.428;2023-02-23T04:43:17;97512.41;;;6.80
61977;BMP280;45905;50.570;10.428;2023-02-23T04:45:45;97505.00;;;6.78
61977;BMP280;45905;50.570;10.428;2023-02-23T04:48:12;97505.00;;;6.78
61977;BMP280;45905;50.570;10.428;2023-02-23T04:50:39;97505.91;;;6.77
61977;BMP280;45905;50.570;10.428;2023-02-23T04:53:06;97505.00;;;6.78
61977;BMP280;45905;50.570;10.428;2023-02-23T04:55:33;97504.72;;;6.81
61977;BMP280;45905;50.570;10.428;2023-02-23T04:58:01;97511.34;;;6.82
61977;BMP280;45905;50.570;10.428;2023-02-23T05:00:29;97512.13;;;6.83
61977;BMP280;45905;50.570;10.428;2023-02-23T05:02:57;97504.41;;;6.84
61977;BMP280;45905;50.570;10.428;2023-02-23T05:05:24;97507.59;;;6.86
61977;BMP280;45905;50.570;10.428;2023-02-23T05:07:51;97504.13;;;6.87
61977;BMP280;45905;50.570;10.428;2023-02-23T05:10:21;97507.31;;;6.89
61977;BMP280;45905;50.570;10.428;2023-02-23T05:12:48;97506.25;;;6.91
61977;BMP280;45905;50.570;10.428;2023-02-23T05:15:15;97492.56;;;6.94
61977;BMP280;45905;50.570;10.428;2023-02-23T05:17:42;97491.63;;;6.95
61977;BMP280;45905;50.570;10.428;2023-02-23T05:20:12;97497.72;;;6.92
61977;BMP280;45905;50.570;10.428;2023-02-23T05:22:40;97504.13;;;6.87
61977;BMP280;45905;50.570;10.428;2023-02-23T05:25:08;97499.75;;;6.89
61977;BMP280;45905;50.570;10.428;2023-02-23T05:27:36;97503.88;;;6.90
61977;BMP280;45905;50.570;10.428;2023-02-23T05:30:06;97504.50;;;6.92
61977;BMP280;45905;50.570;10.428;2023-02-23T05:32:34;97496.94;;;6.92
61977;BMP280;45905;50.570;10.428;2023-02-23T05:35:01;97495.38;;;6.91
61977;BMP280;45905;50.570;10.428;2023-02-23T05:37:29;97489.56;;;6.90
61977;BMP280;45905;50.570;10.428;2023-02-23T05:39:56;97491.28;;;6.90
61977;BMP280;45905;50.570;10.428;2023-02-23T05:42:23;97493.00;;;6.89
61977;BMP280;45905;50.570;10.428;2023-02-23T05:44:50;97482.94;;;6.89
61977;BMP280;45905;50.570;10.428;2023-02-23T05:47:17;97485.31;;;6.91
61977;BMP280;45905;50.570;10.428;2023-02-23T05:49:45;97483.72;;;6.90
61977;BMP280;45905;50.570;10.428;2023-02-23T05:52:12;97497.66;;;6.85
61977;BMP280;45905;50.570;10.428;2023-02-23T05:54:39;97503.41;;;6.77
61977;BMP280;45905;50.570;10.428;2023-02-23T05:57:06;97513.75;;;6.74
61977;BMP280;45905;50.570;10.428;2023-02-23T05:59:34;97509.66;;;6.73
61977;BMP280;45905;50.570;10.428;2023-02-23T06:02:02;97514.69;;;6.73
61977;BMP280;45905;50.570;10.428;2023-02-23T06:04:32;97526.31;;;6.74
61977;BMP280;45905;50.570;10.428;2023-02-23T06:06:59;97534.53;;;6.76
61977;BMP280;45905;50.570;10.428;2023-02-23T06:09:26;97529.63;;;6.75
61977;BMP280;45905;50.570;10.428;2023-02-23T06:11:53;97530.28;;;6.77
61977;BMP280;45905;50.570;10.428;2023-02-23T06:14:21;97527.66;;;6.78
61977;BMP280;45905;50.570;10.428;2023-02-23T06:16:48;97533.19;;;6.82
61977;BMP280;45905;50.570;10.428;2023-02-23T06:19:15;97539.66;;;6.84
61977;BMP280;45905;50.570;10.428;2023-02-23T06:21:42;97542.84;;;6.86
61977;BMP280;45905;50.570;10.428;2023-02-23T06:24:09;97547.06;;;6.85
61977;BMP280;45905;50.570;10.428;2023-02-23T06:26:36;97546.28;;;6.85
61977;BMP280;45905;50.570;10.428;2023-02-23T06:29:04;97546.56;;;6.82
61977;BMP280;45905;50.570;10.428;2023-02-23T06:31:31;97548.13;;;6.83
61977;BMP280;45905;50.570;10.428;2023-02-23T06:33:58;97545.63;;;6.83
61977;BMP280;45905;50.570;10.428;2023-02-23T06:36:26;97549.72;;;6.84
61977;BMP280;45905;50.570;10.428;2023-02-23T06:38:57;97552.09;;;6.85
61977;BMP280;45905;50.570;10.428;2023-02-23T06:41:25;97554.22;;;6.90
61977;BMP280;45905;50.570;10.428;2023-02-23T06:43:52;97551.56;;;6.91
61977;BMP280;45905;50.570;10.428;2023-02-23T06:46:20;97542.91;;;6.94
61977;BMP280;45905;50.570;10.428;2023-02-23T06:48:47;97549.41;;;6.96
61977;BMP280;45905;50.570;10.428;2023-02-23T06:51:14;97550.19;;;6.97
61977;BMP280;45905;50.570;10.428;2023-02-23T06:53:42;97555.09;;;6.98
61977;BMP280;45905;50.570;10.428;2023-02-23T06:56:09;97560.25;;;6.97
61977;BMP280;45905;50.570;10.428;2023-02-23T06:58:39;97558.03;;;6.94
61977;BMP280;45905;50.570;10.428;2023-02-23T07:01:06;97557.34;;;6.92
61977;BMP280;45905;50.570;10.428;2023-02-23T07:03:34;97561.19;;;6.96
61977;BMP280;45905;50.570;10.428;2023-02-23T07:06:01;97559.34;;;6.98
61977;BMP280;45905;50.570;10.428;2023-02-23T07:08:34;97574.81;;;7.03
61977;BMP280;45905;50.570;10.428;2023-02-23T07:11:10;97575.47;;;7.04
61977;BMP280;45905;50.570;10.428;2023-02-23T07:13:39;97569.34;;;7.07
61977;BMP280;45905;50.570;10.428;2023-02-23T07:16:07;97570.00;;;7.09
61977;BMP280;45905;50.570;10.428;2023-02-23T07:18:34;97572.09;;;7.13
61977;BMP280;45905;50.570;10.428;2023-02-23T07:21:02;97567.84;;;7.14
61977;BMP280;45905;50.570;10.428;2023-02-23T07:23:30;97571.81;;;7.16
61977;BMP280;45905;50.570;10.428;2023-02-23T07:25:57;97570.72;;;7.19
61977;BMP280;45905;50.570;10.428;2023-02-23T07:28:25;97578.13;;;7.20
61977;BMP280;45905;50.570;10.428;2023-02-23T07:30:58;97575.34;;;7.23
61977;BMP280;45905;50.570;10.428;2023-02-23T07:33:25;97573.34;;;7.26
61977;BMP280;45905;50.570;10.428;2023-02-23T07:35:52;97582.19;;;7.30
61977;BMP280;45905;50.570;10.428;2023-02-23T07:38:19;97579.38;;;7.33
61977;BMP280;45905;50.570;10.428;2023-02-23T07:40:51;97581.78;;;7.35
61977;BMP280;45905;50.570;10.428;2023-02-23T07:43:18;97584.78;;;7.38
61977;BMP280;45905;50.570;10.428;2023-02-23T07:45:50;97586.22;;;7.41
61977;BMP280;45905;50.570;10.428;2023-02-23T07:48:19;97575.88;;;7.43
61977;BMP280;45905;50.570;10.428;2023-02-23T07:50:46;97574.78;;;7.46
61977;BMP280;45905;50.570;10.428;2023-02-23T07:53:14;97584.56;;;7.49
61977;BMP280;45905;50.570;10.428;2023-02-23T07:55:41;97589.16;;;7.53
61977;BMP280;45905;50.570;10.428;2023-02-23T07:58:09;97589.81;;;7.55
61977;BMP280;45905;50.570;10.428;2023-02-23T08:00:36;97580.25;;;7.59
61977;BMP280;45905;50.570;10.428;2023-02-23T08:03:06;97580.75;;;7.62
61977;BMP280;45905;50.570;10.428;2023-02-23T08:05:33;97600.63;;;7.65
61977;BMP280;45905;50.570;10.428;2023-02-23T08:08:02;97591.69;;;7.70
61977;BMP280;45905;50.570;10.428;2023-02-23T08:10:29;97582.25;;;7.72
61977;BMP280;45905;50.570;10.428;2023-02-23T08:12:57;97596.97;;;7.77
61977;BMP280;45905;50.570;10.428;2023-02-23T08:15:25;97592.25;;;7.81
61977;BMP280;45905;50.570;10.428;2023-02-23T08:17:53;97585.06;;;7.86
61977;BMP280;45905;50.570;10.428;2023-02-23T08:20:20;97592.03;;;7.92
61977;BMP280;45905;50.570;10.428;2023-02-23T08:22:55;97597.41;;;7.97
61977;BMP280;45905;50.570;10.428;2023-02-23T08:25:23;97585.22;;;8.02
61977;BMP280;45905;50.570;10.428;2023-02-23T08:27:50;97589.97;;;8.05
61977;BMP280;45905;50.570;10.428;2023-02-23T08:30:23;97577.69;;;8.10
61977;BMP280;45905;50.570;10.428;2023-02-23T08:32:50;97583.06;;;8.15
61977;BMP280;45905;50.570;10.428;2023-02-23T08:35:17;97577.00;;;8.25
61977;BMP280;45905;50.570;10.428;2023-02-23T08:37:46;97579.75;;;8.31
61977;BMP280;45905;50.570;10.428;2023-02-23T08:40:13;97585.25;;;8.35
61977;BMP280;45905;50.570;10.428;2023-02-23T08:42:46;97579.28;;;8.36
61977;BMP280;45905;50.570;10.428;2023-02-23T08:45:15;97574.88;;;8.38
61977;BMP280;45905;50.570;10.428;2023-02-23T08:47:42;97582.13;;;8.40
61977;BMP280;45905;50.570;10.428;2023-02-23T08:50:11;97579.16;;;8.45
61977;BMP280;45905;50.570;10.428;2023-02-23T08:52:39;97577.94;;;8.49
61977;BMP280;45905;50.570;10.428;2023-02-23T08:55:07;97577.47;;;8.53
61977;BMP280;45905;50.570;10.428;2023-02-23T08:57:36;97592.34;;;8.56
61977;BMP280;45905;50.570;10.428;2023-02-23T09:00:05;97584.44;;;8.59
61977;BMP280;45905;50.570;10.428;2023-02-23T09:02:40;97592.22;;;8.65
61977;BMP280;45905;50.570;10.428;2023-02-23T09:05:08;97588.44;;;8.69
61977;BMP280;45905;50.570;10.428;2023-02-23T09:07:38;97586.88;;;8.76
61977;BMP280;45905;50.570;10.428;2023-02-23T09:10:06;97588.19;;;8.80
61977;BMP280;45905;50.570;10.428;2023-02-23T09:12:33;97584.09;;;8.87
61977;BMP280;45905;50.570;10.428;2023-02-23T09:15:01;97589.19;;;8.95
61977;BMP280;45905;50.570;10.428;2023-02-23T09:17:28;97587.00;;;8.99
61977;BMP280;45905;50.570;10.428;2023-02-23T09:19:55;97588.91;;;9.05
61977;BMP280;45905;50.570;10.428;2023-02-23T09:22:22;97588.28;;;9.11
61977;BMP280;45905;50.570;10.428;2023-02-23T09:24:49;97587.53;;;9.18
61977;BMP280;45905;50.570;10.428;2023-02-23T09:27:16;97591.19;;;9.24
61977;BMP280;45905;50.570;10.428;2023-02-23T09:29:43;97593.41;;;9.27
61977;BMP280;45905;50.570;10.428;2023-02-23T09:32:11;97592.63;;;9.34
61977;BMP280;45905;50.570;10.428;2023-02-23T09:34:38;97592.78;;;9.40
61977;BMP280;45905;50.570;10.428;2023-02-23T09:37:05;97595.47;;;9.47
61977;BMP280;45905;50.570;10.428;2023-02-23T09:39:32;97587.75;;;9.48
61977;BMP280;45905;50.570;10.428;2023-02-23T09:42:47;97592.19;;;9.54
61977;BMP280;45905;50.570;10.428;2023-02-23T09:45:27;97600.41;;;9.56
61977;BMP280;45905;50.570;10.428;2023-02-23T09:50:55;97604.22;;;9.60
61977;BMP280;45905;50.570;10.428;2023-02-23T09:53:38;97595.69;;;9.61
61977;BMP280;45905;50.570;10.428;2023-02-23T09:58:49;97592.22;;;9.62
61977;BMP280;45905;50.570;10.428;2023-02-23T10:04:42;97598.84;;;9.63
61977;BMP280;45905;50.570;10.428;2023-02-23T10:07:43;97594.56;;;9.63
61977;BMP280;45905;50.570;10.428;2023-02-23T10:10:39;97596.13;;;9.64
61977;BMP280;45905;50.570;10.428;2023-02-23T10:21:14;97596.94;;;9.72
61977;BMP280;45905;50.570;10.428;2023-02-23T10:24:00;97599.00;;;9.77
61977;BMP280;45905;50.570;10.428;2023-02-23T10:26:52;97603.63;;;9.81
61977;BMP280;45905;50.570;10.428;2023-02-23T10:29:27;97597.31;;;9.85
61977;BMP280;45905;50.570;10.428;2023-02-23T10:32:06;97600.94;;;9.91
61977;BMP280;45905;50.570;10.428;2023-02-23T10:34:39;97603.94;;;9.94
61977;BMP280;45905;50.570;10.428;2023-02-23T10:37:11;97600.16;;;9.98
61977;BMP280;45905;50.570;10.428;2023-02-23T10:39:40;97592.72;;;9.96
61977;BMP280;45905;50.570;10.428;2023-02-23T10:42:20;97601.56;;;10.00
61977;BMP280;45905;50.570;10.428;2023-02-23T10:44:48;97612.16;;;10.04
61977;BMP280;45905;50.570;10.428;2023-02-23T10:47:21;97614.38;;;10.07
61977;BMP280;45905;50.570;10.428;2023-02-23T10:49:52;97605.53;;;10.10
61977;BMP280;45905;50.570;10.428;2023-02-23T10:52:34;97610.13;;;10.15
61977;BMP280;45905;50.570;10.428;2023-02-23T10:55:30;97611.22;;;10.20
61977;BMP280;45905;50.570;10.428;2023-02-23T10:58:18;97606.44;;;10.25
61977;BMP280;45905;50.570;10.428;2023-02-23T11:00:58;97603.44;;;10.29
61977;BMP280;45905;50.570;10.428;2023-02-23T11:03:38;97596.31;;;10.33
61977;BMP280;45905;50.570;10.428;2023-02-23T11:06:35;97592.19;;;10.40
61977;BMP280;45905;50.570;10.428;2023-02-23T11:09:30;97595.03;;;10.45
61977;BMP280;45905;50.570;10.428;2023-02-23T11:12:24;97601.03;;;10.51
61977;BMP280;45905;50.570;10.428;2023-02-23T11:14:55;97596.13;;;10.58
61977;BMP280;45905;50.570;10.428;2023-02-23T11:17:36;97597.34;;;10.62
61977;BMP280;45905;50.570;10.428;2023-02-23T11:20:19;97592.78;;;10.65
61977;BMP280;45905;50.570;10.428;2023-02-23T11:22:48;97592.63;;;10.67
61977;BMP280;45905;50.570;10.428;2023-02-23T11:25:29;97599.25;;;10.68
61977;BMP280;45905;50.570;10.428;2023-02-23T11:27:58;97588.94;;;10.69
61977;BMP280;45905;50.570;10.428;2023-02-23T11:30:44;97587.19;;;10.69
61977;BMP280;45905;50.570;10.428;2023-02-23T11:33:19;97581.19;;;10.70
61977;BMP280;45905;50.570;10.428;2023-02-23T11:35:58;97584.81;;;10.68
61977;BMP280;45905;50.570;10.428;2023-02-23T11:38:33;97583.72;;;10.70
61977;BMP280;45905;50.570;10.428;2023-02-23T11:41:09;97578.81;;;10.69
61977;BMP280;45905;50.570;10.428;2023-02-23T11:43:56;97584.66;;;10.69
61977;BMP280;45905;50.570;10.428;2023-02-23T11:46:26;97584.06;;;10.68
61977;BMP280;45905;50.570;10.428;2023-02-23T11:49:07;97569.97;;;10.65
61977;BMP280;45905;50.570;10.428;2023-02-23T11:51:46;97576.00;;;10.64
61977;BMP280;45905;50.570;10.428;2023-02-23T11:54:27;97577.88;;;10.62
61977;BMP280;45905;50.570;10.428;2023-02-23T11:56:56;97570.44;;;10.61
61977;BMP280;45905;50.570;10.428;2023-02-23T11:59:38;97573.94;;;10.60
61977;BMP280;45905;50.570;10.428;2023-02-23T12:02:25;97576.31;;;10.61
61977;BMP280;45905;50.570;10.428;2023-02-23T12:05:08;97572.81;;;10.62
61977;BMP280;45905;50.570;10.428;2023-02-23T12:07:36;97571.25;;;10.61
61977;BMP280;45905;50.570;10.428;2023-02-23T12:10:24;97567.44;;;10.65
61977;BMP280;45905;50.570;10.428;2023-02-23T12:16:37;97560.28;;;10.68
61977;BMP280;45905;50.570;10.428;2023-02-23T12:19:24;97557.94;;;10.67
61977;BMP280;45905;50.570;10.428;2023-02-23T12:22:01;97565.53;;;10.67
61977;BMP280;45905;50.570;10.428;2023-02-23T12:27:11;97561.91;;;10.62
61977;BMP280;45905;50.570;10.428;2023-02-23T12:35:22;97559.22;;;10.63
61977;BMP280;45905;50.570;10.428;2023-02-23T12:38:02;97555.56;;;10.66
61977;BMP280;45905;50.570;10.428;2023-02-23T12:40:34;97545.28;;;10.67
61977;BMP280;45905;50.570;10.428;2023-02-23T12:49:15;97545.53;;;10.80
61977;BMP280;45905;50.570;10.428;2023-02-23T12:51:54;97546.78;;;10.84
61977;BMP280;45905;50.570;10.428;2023-02-23T12:54:25;97540.59;;;10.86
61977;BMP280;45905;50.570;10.428;2023-02-23T12:57:25;97537.56;;;10.90
61977;BMP280;45905;50.570;10.428;2023-02-23T13:09:23;97540.34;;;11.03
61977;BMP280;45905;50.570;10.428;2023-02-23T13:15:28;97539.69;;;11.09
61977;BMP280;45905;50.570;10.428;2023-02-23T13:18:10;97527.66;;;11.11
61977;BMP280;45905;50.570;10.428;2023-02-23T13:21:24;97527.66;;;11.11
61977;BMP280;45905;50.570;10.428;2023-02-23T13:24:18;97525.91;;;11.11
61977;BMP280;45905;50.570;10.428;2023-02-23T13:29:52;97518.31;;;11.11
61977;BMP280;45905;50.570;10.428;2023-02-23T13:32:25;97514.63;;;11.14
61977;BMP280;45905;50.570;10.428;2023-02-23T13:35:04;97514.31;;;11.17
61977;BMP280;45905;50.570;10.428;2023-02-23T13:37:40;97508.13;;;11.19
61977;BMP280;45905;50.570;10.428;2023-02-23T13:43:23;97514.09;;;11.26
61977;BMP280;45905;50.570;10.428;2023-02-23T13:46:02;97523.44;;;11.25
61977;BMP280;45905;50.570;10.428;2023-02-23T13:49:03;97520.28;;;11.24
61977;BMP280;45905;50.570;10.428;2023-02-23T13:51:51;97519.31;;;11.24
61977;BMP280;45905;50.570;10.428;2023-02-23T13:54:29;97517.09;;;11.22
61977;BMP280;45905;50.570;10.428;2023-02-23T13:57:13;97518.06;;;11.21
61977;BMP280;45905;50.570;10.428;2023-02-23T13:59:44;97515.88;;;11.18
61977;BMP280;45905;50.570;10.428;2023-02-23T14:02:40;97525.22;;;11.17
61977;BMP280;45905;50.570;10.428;2023-02-23T14:05:23;97510.34;;;11.14
61977;BMP280;45905;50.570;10.428;2023-02-23T14:07:59;97512.09;;;11.14
61977;BMP280;45905;50.570;10.428;2023-02-23T14:10:42;97509.38;;;11.15
61977;BMP280;45905;50.570;10.428;2023-02-23T14:16:06;97505.38;;;11.21
61977;BMP280;45905;50.570;10.428;2023-02-23T14:18:34;97498.25;;;11.24
61977;BMP280;45905;50.570;10.428;2023-02-23T14:21:16;97502.81;;;11.28
61977;BMP280;45905;50.570;10.428;2023-02-23T14:34:48;97509.00;;;11.34
61977;BMP280;45905;50.570;10.428;2023-02-23T14:40:17;97510.41;;;11.36
61977;BMP280;45905;50.570;10.428;2023-02-23T14:42:56;97506.44;;;11.34
61977;BMP280;45905;50.570;10.428;2023-02-23T14:45:27;97507.25;;;11.34
61977;BMP280;45905;50.570;10.428;2023-02-23T14:48:11;97511.34;;;11.35
61977;BMP280;45905;50.570;10.428;2023-02-23T14:50:40;97511.34;;;11.35
61977;BMP280;45905;50.570;10.428;2023-02-23T14:53:28;97513.28;;;11.33
61977;BMP280;45905;50.570;10.428;2023-02-23T14:55:57;97507.56;;;11.31
61977;BMP280;45905;50.570;10.428;2023-02-23T14:58:30;97507.09;;;11.28
61977;BMP280;45905;50.570;10.428;2023-02-23T15:00:59;97507.25;;;11.26
61977;BMP280;45905;50.570;10.428;2023-02-23T15:03:26;97508.22;;;11.25
61977;BMP280;45905;50.570;10.428;2023-02-23T15:05:59;97501.56;;;11.24
61977;BMP280;45905;50.570;10.428;2023-02-23T15:08:29;97494.91;;;11.24
61977;BMP280;45905;50.570;10.428;2023-02-23T15:11:10;97497.44;;;11.24
61977;BMP280;45905;50.570;10.428;2023-02-23T15:13:47;97491.75;;;11.22
61977;BMP280;45905;50.570;10.428;2023-02-23T15:16:36;97491.75;;;11.22
61977;BMP280;45905;50.570;10.428;2023-02-23T15:19:05;97496.81;;;11.22
61977;BMP280;45905;50.570;10.428;2023-02-23T15:21:35;97494.47;;;11.20
61977;BMP280;45905;50.570;10.428;2023-02-23T15:24:10;97500.31;;;11.21
61977;BMP280;45905;50.570;10.428;2023-02-23T15:26:40;97499.09;;;11.17
61977;BMP280;45905;50.570;10.428;2023-02-23T15:31:37;97510.50;;;11.13
61977;BMP280;45905;50.570;10.428;2023-02-23T15:34:10;97505.44;;;11.13
61977;BMP280;45905;50.570;10.428;2023-02-23T15:36:38;97499.09;;;11.17
61977;BMP280;45905;50.570;10.428;2023-02-23T15:39:15;97500.84;;;11.16
61977;BMP280;45905;50.570;10.428;2023-02-23T15:41:46;97503.22;;;11.18
61977;BMP280;45905;50.570;10.428;2023-02-23T15:44:24;97497.34;;;11.17
61977;BMP280;45905;50.570;10.428;2023-02-23T15:47:11;97504.94;;;11.17
61977;BMP280;45905;50.570;10.428;2023-02-23T15:49:43;97498.31;;;11.16
61977;BMP280;45905;50.570;10.428;2023-02-23T15:52:25;97509.22;;;11.17
61977;BMP280;45905;50.570;10.428;2023-02-23T15:55:08;97504.16;;;11.17
61977;BMP280;45905;50.570;10.428;2023-02-23T15:57:53;97500.66;;;11.18
61977;BMP280;45905;50.570;10.428;2023-02-23T16:00:55;97495.75;;;11.16
61977;BMP280;45905;50.570;10.428;2023-02-23T16:03:31;97506.84;;;11.15
61977;BMP280;45905;50.570;10.428;2023-02-23T16:06:21;97505.63;;;11.11
61977;BMP280;45905;50.570;10.428;2023-02-23T16:14:23;97502.69;;;11.00
61977;BMP280;45905;50.570;10.428;2023-02-23T16:16:52;97513.13;;;10.97
61977;BMP280;45905;50.570;10.428;2023-02-23T16:19:36;97523.59;;;10.94
61977;BMP280;45905;50.570;10.428;2023-02-23T16:22:22;97515.41;;;10.92
61977;BMP280;45905;50.570;10.428;2023-02-23T16:25:13;97516.34;;;10.91
61977;BMP280;45905;50.570;10.428;2023-02-23T16:27:44;97515.41;;;10.92
61977;BMP280;45905;50.570;10.428;2023-02-23T16:30:43;97505.25;;;10.92
61977;BMP280;45905;50.570;10.428;2023-02-23T16:33:19;97511.91;;;10.93
61977;BMP280;45905;50.570;10.428;2023-02-23T16:41:19;97507.78;;;10.92
61977;BMP280;45905;50.570;10.428;2023-02-23T16:43:50;97504.47;;;10.92
61977;BMP280;45905;50.570;10.428;2023-02-23T16:46:20;97513.81;;;10.91
61977;BMP280;45905;50.570;10.428;2023-02-23T16:48:49;97515.72;;;10.89
61977;BMP280;45905;50.570;10.428;2023-02-23T16:51:20;97511.91;;;10.86